Time;durP1;ratioP1;P1;durP2;ratioP2;P2;SDS_P1;SDS_P2;PMS_P1;PMS_P2;Temp;Humidity;BMP_temperature;BMP_pressure;BME280_temperature;BME280_humidity;BME280_pressure;Samples;Min_cycle;Max_cycle;Signal;HPM_P1;HPM_P2
2023/05/27 00:01:46;;;;;;;9.17;4.37;;;12.70;99.90;;;;;;4944138;28;20206;-65
2023/05/27 00:04:12;;;;;;;8.43;4.10;;;12.80;99.90;;;;;;4947864;28;20253;-64
2023/05/27 00:06:37;;;;;;;10.57;3.70;;;12.70;99.90;;;;;;4929699;28;20212;-64
2023/05/27 00:09:03;;;;;;;9.63;4.50;;;12.60;99.90;;;;;;4953069;28;20358;-66
2023/05/27 00:11:28;;;;;;;9.60;4.03;;;12.60;99.90;;;;;;4959627;28;20264;-67
2023/05/27 00:13:53;;;;;;;8.50;4.07;;;12.70;99.90;;;;;;4961837;28;20288;-68
2023/05/27 00:16:19;;;;;;;8.97;4.07;;;12.50;99.90;;;;;;4961998;28;20212;-63
2023/05/27 00:18:47;;;;;;;7.40;3.70;;;12.50;99.90;;;;;;4959551;28;20383;-62
2023/05/27 00:21:12;;;;;;;8.83;3.40;;;12.60;99.90;;;;;;4959661;28;20235;-65
2023/05/27 00:23:38;;;;;;;7.97;3.37;;;12.50;99.90;;;;;;4961715;28;20712;-65
2023/05/27 00:26:03;;;;;;;9.50;4.30;;;12.30;99.90;;;;;;4946998;28;20293;-62
2023/05/27 00:28:31;;;;;;;8.40;3.60;;;12.30;99.90;;;;;;4952768;28;20675;-62
2023/05/27 00:30:57;;;;;;;8.90;4.50;;;12.30;99.90;;;;;;4961739;28;20197;-63
2023/05/27 00:33:22;;;;;;;11.33;3.80;;;12.30;99.90;;;;;;4961759;28;20288;-62
2023/05/27 00:35:48;;;;;;;7.63;3.73;;;12.30;99.90;;;;;;4961317;28;20202;-64
2023/05/27 00:38:13;;;;;;;9.03;3.60;;;12.30;99.90;;;;;;4941827;28;20212;-65
2023/05/27 00:40:40;;;;;;;14.13;3.70;;;12.30;99.90;;;;;;4961640;28;20209;-63
2023/05/27 00:43:06;;;;;;;10.83;4.60;;;12.20;99.90;;;;;;4961325;28;20212;-62
2023/05/27 00:45:31;;;;;;;9.50;3.73;;;12.20;99.90;;;;;;4961418;28;20208;-63
2023/05/27 00:47:58;;;;;;;8.33;3.73;;;12.10;99.90;;;;;;4961841;28;20204;-63
2023/05/27 00:50:26;;;;;;;10.33;4.37;;;12.10;99.90;;;;;;4961440;28;20233;-65
2023/05/27 00:52:55;;;;;;;9.90;3.53;;;12.10;99.90;;;;;;4961368;28;20204;-65
2023/05/27 00:55:21;;;;;;;9.80;4.70;;;12.10;99.90;;;;;;4961373;28;20672;-65
2023/05/27 00:57:47;;;;;;;7.47;4.37;;;12.00;99.90;;;;;;4961216;28;20670;-66
2023/05/27 01:00:13;;;;;;;12.17;5.33;;;12.00;99.90;;;;;;4961302;28;20324;-64
2023/05/27 01:02:43;;;;;;;8.60;4.00;;;12.00;99.90;;;;;;4959150;28;20211;-63
2023/05/27 01:05:10;;;;;;;7.97;4.20;;;12.00;99.90;;;;;;4961056;28;20283;-62
2023/05/27 01:08:07;;;;;;;8.33;4.40;;;12.00;99.90;;;;;;4960764;28;20602;-62
2023/05/27 01:10:40;;;;;;;10.27;4.17;;;11.90;99.90;;;;;;4956452;28;20302;-62
2023/05/27 01:13:15;;;;;;;13.00;4.50;;;11.90;99.90;;;;;;4959659;28;20664;-62
2023/05/27 01:15:41;;;;;;;13.23;3.80;;;11.80;99.90;;;;;;4960975;28;20207;-62
2023/05/27 01:18:08;;;;;;;10.83;4.07;;;11.80;99.90;;;;;;4960753;28;20336;-62
2023/05/27 01:20:40;;;;;;;11.20;4.07;;;11.80;99.90;;;;;;4955717;28;20260;-62
2023/05/27 01:23:09;;;;;;;11.53;3.93;;;11.70;99.90;;;;;;4960255;28;20280;-62
2023/05/27 01:25:35;;;;;;;11.23;4.17;;;11.70;99.90;;;;;;4960991;28;20643;-62
2023/05/27 01:28:00;;;;;;;10.00;3.77;;;11.70;99.90;;;;;;4959072;28;20267;-62
2023/05/27 01:30:26;;;;;;;7.87;3.90;;;11.60;99.90;;;;;;4947942;28;20277;-62
2023/05/27 01:32:58;;;;;;;6.53;3.53;;;11.60;99.90;;;;;;4949735;28;20292;-63
2023/05/27 01:35:31;;;;;;;11.00;4.03;;;11.60;99.90;;;;;;4944024;28;20213;-62
2023/05/27 01:38:01;;;;;;;8.43;4.67;;;11.50;99.90;;;;;;4951273;28;20209;-62
2023/05/27 01:40:28;;;;;;;9.77;3.83;;;11.60;99.90;;;;;;4949317;28;20209;-62
2023/05/27 01:42:55;;;;;;;10.10;4.40;;;11.50;99.90;;;;;;4950117;28;20205;-62
2023/05/27 01:45:21;;;;;;;6.80;4.10;;;11.50;99.90;;;;;;4950497;28;20947;-62
2023/05/27 01:47:47;;;;;;;9.10;4.40;;;11.40;99.90;;;;;;4953850;28;20205;-63
2023/05/27 01:50:12;;;;;;;11.20;4.27;;;11.50;99.90;;;;;;4945831;28;20348;-62
2023/05/27 01:52:38;;;;;;;9.40;4.33;;;11.50;99.90;;;;;;4951044;28;20227;-62
2023/05/27 01:55:05;;;;;;;11.43;4.47;;;11.40;99.90;;;;;;4951173;28;20224;-62
2023/05/27 01:57:30;;;;;;;15.37;4.10;;;11.40;99.90;;;;;;4950801;28;20217;-62
2023/05/27 01:59:56;;;;;;;10.60;3.80;;;11.30;99.90;;;;;;4951015;28;20623;-61
2023/05/27 02:02:22;;;;;;;5.27;3.73;;;11.30;99.90;;;;;;4948788;28;20213;-64
2023/05/27 02:04:47;;;;;;;8.60;4.00;;;11.30;99.90;;;;;;4952438;28;20586;-62
2023/05/27 02:07:13;;;;;;;9.73;4.73;;;11.30;99.90;;;;;;4948999;28;20214;-62
2023/05/27 02:09:38;;;;;;;7.50;4.17;;;11.20;99.90;;;;;;4952761;28;20208;-62
2023/05/27 02:12:06;;;;;;;11.17;4.43;;;11.20;99.90;;;;;;4948598;28;20206;-62
2023/05/27 02:14:32;;;;;;;11.43;4.07;;;11.20;99.90;;;;;;4952648;28;20211;-62
2023/05/27 02:16:57;;;;;;;10.10;4.33;;;11.20;99.90;;;;;;4946706;28;20565;-62
2023/05/27 02:19:24;;;;;;;7.13;4.37;;;11.20;99.90;;;;;;4950707;28;20200;-62
2023/05/27 02:21:50;;;;;;;10.93;4.80;;;11.10;99.90;;;;;;4950229;28;20202;-63
2023/05/27 02:24:15;;;;;;;15.20;4.87;;;11.00;99.90;;;;;;4956664;28;20248;-63
2023/05/27 02:26:41;;;;;;;13.53;4.93;;;11.00;99.90;;;;;;4959150;28;20193;-65
2023/05/27 02:29:06;;;;;;;6.07;3.83;;;10.90;99.90;;;;;;4958979;28;20193;-62
2023/05/27 02:31:32;;;;;;;11.33;4.67;;;11.00;99.90;;;;;;4956243;28;20660;-61
2023/05/27 02:33:57;;;;;;;10.30;4.67;;;10.90;99.90;;;;;;4946339;28;20213;-62
2023/05/27 02:36:23;;;;;;;16.27;4.77;;;10.90;99.90;;;;;;4950486;28;20223;-61
2023/05/27 02:38:49;;;;;;;5.43;4.23;;;10.90;99.90;;;;;;4947229;28;20309;-62
2023/05/27 02:41:15;;;;;;;12.00;4.97;;;10.90;99.90;;;;;;4951406;28;20284;-62
2023/05/27 02:43:40;;;;;;;12.97;4.83;;;10.90;99.90;;;;;;4949922;28;20261;-62
2023/05/27 02:46:06;;;;;;;16.07;4.80;;;11.00;99.90;;;;;;4950403;28;21037;-61
2023/05/27 02:48:31;;;;;;;13.43;4.03;;;10.90;99.90;;;;;;4950927;28;20201;-62
2023/05/27 02:50:57;;;;;;;8.13;4.87;;;10.70;99.90;;;;;;4949436;28;20259;-62
2023/05/27 02:53:22;;;;;;;10.47;5.27;;;10.70;99.90;;;;;;4947383;28;20216;-62
2023/05/27 02:55:49;;;;;;;8.87;4.27;;;10.70;99.90;;;;;;4949237;28;20690;-62
2023/05/27 02:58:14;;;;;;;9.90;4.40;;;10.70;99.90;;;;;;4949231;28;20235;-62
2023/05/27 03:00:40;;;;;;;10.63;4.50;;;10.80;99.90;;;;;;4949136;28;20265;-62
2023/05/27 03:03:06;;;;;;;12.07;4.73;;;10.60;99.90;;;;;;4949319;28;20218;-62
2023/05/27 03:05:32;;;;;;;8.60;4.57;;;10.60;99.90;;;;;;4947296;28;20210;-62
2023/05/27 03:07:58;;;;;;;13.50;5.23;;;10.60;99.90;;;;;;4940644;28;20560;-62
2023/05/27 03:10:23;;;;;;;10.13;4.70;;;10.50;99.90;;;;;;4949759;28;20207;-62
2023/05/27 03:12:49;;;;;;;6.97;4.23;;;10.60;99.90;;;;;;4949316;28;20311;-62
2023/05/27 03:15:14;;;;;;;10.80;5.80;;;10.60;99.90;;;;;;4949544;28;20223;-62
2023/05/27 03:17:40;;;;;;;11.60;4.43;;;10.50;99.90;;;;;;4949730;28;20208;-62
2023/05/27 03:20:07;;;;;;;6.50;4.43;;;10.60;99.90;;;;;;4946669;28;20670;-62
2023/05/27 03:22:34;;;;;;;9.93;4.93;;;10.60;99.90;;;;;;4947962;28;20273;-62
2023/05/27 03:25:00;;;;;;;12.13;5.07;;;10.60;99.90;;;;;;4948603;28;20771;-63
2023/05/27 03:27:25;;;;;;;10.37;4.20;;;10.60;99.90;;;;;;4948688;28;20208;-62
2023/05/27 03:29:51;;;;;;;8.27;4.17;;;10.50;99.90;;;;;;4947689;28;20680;-62
2023/05/27 03:32:16;;;;;;;13.80;4.80;;;10.50;99.90;;;;;;4948086;28;20315;-62
2023/05/27 03:34:42;;;;;;;8.20;4.10;;;10.50;99.90;;;;;;4949127;28;20231;-62
2023/05/27 03:37:07;;;;;;;9.07;5.10;;;10.50;99.90;;;;;;4948854;28;20275;-63
2023/05/27 03:39:33;;;;;;;8.93;4.90;;;10.50;99.90;;;;;;4950804;28;20262;-62
2023/05/27 03:41:58;;;;;;;10.20;4.47;;;10.40;99.90;;;;;;4947620;28;20200;-62
2023/05/27 03:44:24;;;;;;;13.63;4.40;;;10.50;99.90;;;;;;4949052;28;20389;-62
2023/05/27 03:46:49;;;;;;;9.87;4.50;;;10.50;99.90;;;;;;4946545;28;20204;-62
2023/05/27 03:49:16;;;;;;;9.80;4.93;;;10.50;99.90;;;;;;4948565;28;20207;-62
2023/05/27 03:51:41;;;;;;;12.90;4.93;;;10.50;99.90;;;;;;4948252;28;20228;-62
2023/05/27 03:54:07;;;;;;;11.13;4.97;;;10.50;99.90;;;;;;4952242;28;20542;-62
2023/05/27 03:56:32;;;;;;;12.57;5.43;;;10.50;99.90;;;;;;4946806;28;20205;-63
2023/05/27 03:58:57;;;;;;;14.70;5.23;;;10.50;99.90;;;;;;4949879;28;20260;-62
2023/05/27 04:01:23;;;;;;;8.87;4.60;;;10.50;99.90;;;;;;4949119;28;20626;-62
2023/05/27 04:03:49;;;;;;;10.07;5.30;;;10.50;99.90;;;;;;4948675;28;20229;-61
2023/05/27 04:06:15;;;;;;;8.40;4.80;;;10.60;99.90;;;;;;4949305;28;20242;-61
2023/05/27 04:08:41;;;;;;;12.10;4.17;;;10.60;99.90;;;;;;4949026;28;20212;-62
2023/05/27 04:11:10;;;;;;;9.73;4.97;;;10.50;99.90;;;;;;4946594;28;20785;-61
2023/05/27 04:13:36;;;;;;;11.43;4.73;;;10.50;99.90;;;;;;4948144;28;20293;-61
2023/05/27 04:16:01;;;;;;;12.97;4.93;;;10.50;99.90;;;;;;4947976;28;20347;-61
2023/05/27 04:18:27;;;;;;;11.50;5.20;;;10.60;99.90;;;;;;4948400;28;20201;-61
2023/05/27 04:20:53;;;;;;;9.20;4.60;;;10.60;99.90;;;;;;4952143;28;20628;-62
2023/05/27 04:23:18;;;;;;;13.13;4.87;;;10.60;99.90;;;;;;4945507;28;20240;-61
2023/05/27 04:25:44;;;;;;;8.17;4.17;;;10.70;99.90;;;;;;4948868;28;20221;-62
2023/05/27 04:28:10;;;;;;;14.30;5.20;;;10.60;99.90;;;;;;4948685;28;20204;-63
2023/05/27 04:30:35;;;;;;;16.97;5.20;;;10.60;99.90;;;;;;4948867;28;20203;-62
2023/05/27 04:33:02;;;;;;;12.00;4.60;;;10.60;99.90;;;;;;4948828;28;20197;-62
2023/05/27 04:35:30;;;;;;;10.27;4.57;;;10.80;99.90;;;;;;4946288;28;20206;-62
2023/05/27 04:37:56;;;;;;;9.03;4.23;;;10.80;99.90;;;;;;4947677;28;20277;-62
2023/05/27 04:40:22;;;;;;;14.67;5.13;;;10.90;99.90;;;;;;4948291;28;20590;-62
2023/05/27 04:42:48;;;;;;;11.07;5.53;;;10.90;99.90;;;;;;4951263;28;20858;-63
2023/05/27 04:45:13;;;;;;;14.20;5.73;;;10.90;99.90;;;;;;4947983;28;20222;-62
2023/05/27 04:47:40;;;;;;;13.93;5.33;;;10.90;99.90;;;;;;4945086;28;20206;-63
2023/05/27 04:50:08;;;;;;;13.30;5.73;;;10.90;99.90;;;;;;4952236;28;20940;-63
2023/05/27 04:52:37;;;;;;;13.73;4.90;;;11.00;99.90;;;;;;4952114;28;20214;-63
2023/05/27 04:55:04;;;;;;;11.40;4.77;;;11.10;99.90;;;;;;4950039;28;20205;-62
2023/05/27 04:57:30;;;;;;;13.53;4.93;;;11.00;99.90;;;;;;4951392;28;20256;-63
2023/05/27 05:00:17;;;;;;;13.43;5.40;;;10.90;99.90;;;;;;4950412;28;21004;-63
2023/05/27 05:02:46;;;;;;;7.13;4.50;;;10.90;99.90;;;;;;4947104;28;20270;-62
2023/05/27 05:05:11;;;;;;;14.77;5.07;;;11.00;99.90;;;;;;4951692;28;20238;-62
2023/05/27 05:07:39;;;;;;;7.77;4.70;;;11.00;99.90;;;;;;4950119;28;20204;-62
2023/05/27 05:10:07;;;;;;;12.53;4.57;;;11.20;99.90;;;;;;4946797;28;20282;-62
2023/05/27 05:12:32;;;;;;;9.23;4.70;;;11.20;99.90;;;;;;4952991;28;20209;-62
2023/05/27 05:14:58;;;;;;;15.13;5.20;;;11.20;99.90;;;;;;4948916;28;20246;-62
2023/05/27 05:17:24;;;;;;;10.97;4.90;;;11.20;99.90;;;;;;4950441;28;20213;-62
2023/05/27 05:19:51;;;;;;;11.37;4.60;;;11.30;99.90;;;;;;4949109;28;20201;-62
2023/05/27 05:22:18;;;;;;;12.07;4.07;;;11.30;99.90;;;;;;4954631;28;20232;-62
2023/05/27 05:24:44;;;;;;;11.13;4.33;;;11.30;99.90;;;;;;4948244;28;20218;-62
2023/05/27 05:27:10;;;;;;;11.57;4.47;;;11.30;99.90;;;;;;4951223;28;20244;-62
2023/05/27 05:29:36;;;;;;;12.03;5.00;;;11.40;99.90;;;;;;4951424;28;20435;-62
2023/05/27 05:32:02;;;;;;;10.43;4.87;;;11.40;99.90;;;;;;4950214;28;20200;-62
2023/05/27 05:34:28;;;;;;;5.90;3.93;;;11.50;99.90;;;;;;4950435;28;20214;-62
2023/05/27 05:36:53;;;;;;;12.00;4.43;;;11.60;99.90;;;;;;4950621;28;20291;-62
2023/05/27 05:39:20;;;;;;;10.80;4.80;;;11.70;99.90;;;;;;4950579;28;20213;-61
2023/05/27 05:41:45;;;;;;;9.90;4.03;;;11.90;99.90;;;;;;4950183;28;20264;-62
2023/05/27 05:44:11;;;;;;;14.27;4.27;;;12.00;99.90;;;;;;4950057;28;20291;-61
2023/05/27 05:46:37;;;;;;;11.03;4.90;;;12.20;99.90;;;;;;4949948;28;20680;-62
2023/05/27 05:49:03;;;;;;;10.17;3.53;;;12.30;99.90;;;;;;4950639;28;20317;-62
2023/05/27 05:51:30;;;;;;;9.80;3.87;;;12.30;99.90;;;;;;4952481;28;20198;-62
2023/05/27 05:53:56;;;;;;;11.40;4.03;;;12.40;99.90;;;;;;4950422;28;20320;-62
2023/05/27 05:56:22;;;;;;;11.00;4.13;;;12.40;99.90;;;;;;4949127;28;20344;-62
2023/05/27 05:58:47;;;;;;;9.10;3.87;;;12.40;99.90;;;;;;4945290;28;20197;-63
2023/05/27 06:01:13;;;;;;;7.53;3.53;;;12.40;99.90;;;;;;4950317;28;20296;-62
2023/05/27 06:03:38;;;;;;;8.57;3.80;;;12.50;99.90;;;;;;4950217;28;20319;-62
2023/05/27 06:06:04;;;;;;;6.90;2.73;;;12.50;99.90;;;;;;4949867;28;20209;-63
2023/05/27 06:08:30;;;;;;;8.80;3.40;;;12.70;99.90;;;;;;4953950;28;20208;-62
2023/05/27 06:10:55;;;;;;;11.77;4.03;;;12.90;99.90;;;;;;4945802;28;20194;-67
2023/05/27 06:13:21;;;;;;;8.70;3.10;;;13.00;99.90;;;;;;4950457;28;20210;-63
2023/05/27 06:15:46;;;;;;;4.83;2.73;;;13.20;99.90;;;;;;4950699;28;21165;-62
2023/05/27 06:18:12;;;;;;;6.27;2.67;;;13.30;99.90;;;;;;4950209;28;20228;-63
2023/05/27 06:20:37;;;;;;;8.23;2.40;;;13.20;99.90;;;;;;4950041;28;20272;-62
2023/05/27 06:23:03;;;;;;;3.53;2.30;;;13.30;99.90;;;;;;4948255;28;20329;-63
2023/05/27 06:25:28;;;;;;;5.37;2.23;;;13.40;99.90;;;;;;4949445;28;20701;-62
2023/05/27 06:27:54;;;;;;;6.27;2.10;;;13.50;99.90;;;;;;4949611;28;20263;-62
2023/05/27 06:30:19;;;;;;;3.97;1.70;;;13.70;99.30;;;;;;4949325;28;21044;-62
2023/05/27 06:32:45;;;;;;;9.33;1.80;;;13.60;98.40;;;;;;4949355;28;20302;-62
2023/05/27 06:35:10;;;;;;;5.13;2.10;;;13.90;98.90;;;;;;4949265;28;20233;-62
2023/05/27 06:37:36;;;;;;;3.50;1.67;;;13.90;98.00;;;;;;4930943;28;20209;-63
2023/05/27 06:40:02;;;;;;;2.13;1.20;;;13.90;97.40;;;;;;4949590;28;20206;-62
2023/05/27 06:42:27;;;;;;;2.60;1.33;;;13.90;96.90;;;;;;4950132;28;20272;-63
2023/05/27 06:44:53;;;;;;;4.87;1.53;;;14.00;96.90;;;;;;4949848;28;20646;-63
2023/05/27 06:47:18;;;;;;;4.97;1.60;;;14.10;95.80;;;;;;4949264;28;20205;-63
2023/05/27 06:49:44;;;;;;;2.10;1.40;;;14.10;95.80;;;;;;4950027;28;20739;-62
2023/05/27 06:52:12;;;;;;;3.63;1.60;;;14.20;95.80;;;;;;4954124;28;20578;-63
2023/05/27 06:54:38;;;;;;;2.37;1.13;;;14.20;94.40;;;;;;4943916;28;20202;-63
2023/05/27 06:57:04;;;;;;;1.67;1.10;;;14.40;92.30;;;;;;4947468;28;20205;-64
2023/05/27 06:59:29;;;;;;;4.07;1.87;;;14.40;92.20;;;;;;4946193;28;20542;-63
2023/05/27 07:01:56;;;;;;;1.87;1.40;;;14.50;92.60;;;;;;4943027;28;20210;-63
2023/05/27 07:04:21;;;;;;;4.57;1.77;;;14.60;93.30;;;;;;4943170;28;20580;-63
2023/05/27 07:06:47;;;;;;;1.20;0.93;;;14.50;93.10;;;;;;4943549;28;20527;-63
2023/05/27 07:09:13;;;;;;;2.30;1.07;;;14.60;92.50;;;;;;4943168;28;20688;-64
2023/05/27 07:11:39;;;;;;;1.63;1.23;;;14.70;92.10;;;;;;4942099;28;20284;-63
2023/05/27 07:14:05;;;;;;;1.93;1.23;;;14.70;91.20;;;;;;4943549;28;20292;-63
2023/05/27 07:16:30;;;;;;;3.23;1.47;;;14.70;90.40;;;;;;4941465;28;20248;-63
2023/05/27 07:18:56;;;;;;;2.10;1.50;;;14.90;90.20;;;;;;4944779;28;20257;-63
2023/05/27 07:21:21;;;;;;;1.90;1.40;;;14.90;91.30;;;;;;4944532;28;20288;-63
2023/05/27 07:23:47;;;;;;;2.17;1.30;;;14.90;91.60;;;;;;4944480;28;20705;-63
2023/05/27 07:26:12;;;;;;;1.10;1.00;;;14.90;91.20;;;;;;4945438;28;20314;-64
2023/05/27 07:28:38;;;;;;;1.27;1.07;;;14.90;90.20;;;;;;4958230;28;20200;-74
2023/05/27 07:31:04;;;;;;;1.60;1.10;;;14.90;88.30;;;;;;4958479;28;20205;-73
2023/05/27 07:33:30;;;;;;;1.57;1.13;;;15.00;89.80;;;;;;4958197;28;20259;-74
2023/05/27 07:35:56;;;;;;;2.33;1.03;;;15.10;90.20;;;;;;4958506;28;20193;-75
2023/05/27 07:38:21;;;;;;;3.17;1.37;;;15.10;89.60;;;;;;4958903;28;21009;-75
2023/05/27 07:40:47;;;;;;;1.03;0.77;;;15.10;88.10;;;;;;4956442;28;20193;-74
2023/05/27 07:43:12;;;;;;;1.60;1.20;;;15.20;84.80;;;;;;4958483;28;20738;-76
2023/05/27 07:45:38;;;;;;;3.73;1.30;;;15.40;85.80;;;;;;4958134;28;20213;-74
2023/05/27 07:48:03;;;;;;;2.43;0.80;;;15.40;81.80;;;;;;4955193;28;20345;-80
2023/05/27 07:50:29;;;;;;;1.47;0.87;;;15.50;82.10;;;;;;4942468;28;20202;-73
2023/05/27 07:52:54;;;;;;;1.00;0.93;;;15.60;79.80;;;;;;4942442;28;20202;-75
2023/05/27 07:55:20;;;;;;;2.13;1.00;;;15.60;78.40;;;;;;4940308;28;20218;-73
2023/05/27 07:57:46;;;;;;;2.53;1.10;;;15.50;79.90;;;;;;4942693;28;20202;-75
2023/05/27 08:00:12;;;;;;;1.70;0.80;;;15.50;81.30;;;;;;4942953;28;20674;-74
2023/05/27 08:02:37;;;;;;;1.50;0.90;;;15.60;80.70;;;;;;4941233;28;20214;-74
2023/05/27 08:05:06;;;;;;;0.90;0.90;;;15.70;79.80;;;;;;4946686;28;20209;-80
2023/05/27 08:07:31;;;;;;;32.50;12.53;;;15.60;78.70;;;;;;4956780;28;20205;-80
2023/05/27 08:09:57;;;;;;;52.60;20.77;;;15.80;77.40;;;;;;4958505;28;20198;-79
2023/05/27 08:12:22;;;;;;;5.87;3.63;;;16.00;78.50;;;;;;4949788;28;20206;-73
2023/05/27 08:14:48;;;;;;;14.97;6.60;;;16.20;76.40;;;;;;4941004;28;20197;-70
2023/05/27 08:17:14;;;;;;;2.87;1.60;;;16.20;75.50;;;;;;4940788;28;20685;-70
2023/05/27 08:19:40;;;;;;;1.37;1.23;;;16.10;76.20;;;;;;4951585;28;20280;-73
2023/05/27 08:22:08;;;;;;;4.90;2.33;;;16.10;74.90;;;;;;4942145;28;20679;-70
2023/05/27 08:24:34;;;;;;;4.93;1.40;;;16.20;72.50;;;;;;4952472;28;20240;-70
2023/05/27 08:27:00;;;;;;;1.67;1.30;;;15.90;72.20;;;;;;4952525;28;20206;-71
2023/05/27 08:29:27;;;;;;;1.43;0.90;;;16.00;73.80;;;;;;4952599;28;20209;-70
2023/05/27 08:31:53;;;;;;;1.20;1.10;;;16.10;74.00;;;;;;4950401;28;20232;-70
2023/05/27 08:34:19;;;;;;;1.73;0.80;;;16.20;72.70;;;;;;4951038;28;20282;-71
2023/05/27 08:36:44;;;;;;;4.37;1.93;;;16.00;71.40;;;;;;4951371;28;20201;-71
2023/05/27 08:39:10;;;;;;;3.30;1.00;;;16.20;71.40;;;;;;4950797;28;20206;-71
2023/05/27 08:41:36;;;;;;;2.30;1.10;;;16.40;70.90;;;;;;4932967;29;20236;-75
2023/05/27 08:44:02;;;;;;;1.30;0.97;;;16.40;70.80;;;;;;4945714;28;20233;-73
2023/05/27 08:46:28;;;;;;;1.30;1.07;;;16.30;84.80;;;;;;4951225;28;20210;-73
2023/05/27 08:48:55;;;;;;;1.80;1.23;;;16.10;79.20;;;;;;4951602;28;20325;-72
2023/05/27 08:51:21;;;;;;;7.27;2.70;;;16.00;74.20;;;;;;4960267;28;20218;-69
2023/05/27 08:53:48;;;;;;;5.37;2.07;;;16.00;69.50;;;;;;4959189;28;20589;-72
2023/05/27 08:56:19;;;;;;;1.77;1.40;;;15.90;70.50;;;;;;4945529;28;20221;-72
2023/05/27 08:58:45;;;;;;;2.23;1.77;;;15.90;67.10;;;;;;4945144;28;20262;-70
2023/05/27 09:01:12;;;;;;;2.07;1.10;;;15.70;67.00;;;;;;4947213;28;20226;-70
2023/05/27 09:03:37;;;;;;;0.90;0.90;;;15.50;86.90;;;;;;4947285;28;20218;-71
2023/05/27 09:06:04;;;;;;;3.30;1.30;;;15.20;79.20;;;;;;4930149;29;20213;-70
2023/05/27 09:08:30;;;;;;;4.10;1.13;;;15.30;77.90;;;;;;4948022;28;20575;-69
2023/05/27 09:10:56;;;;;;;1.33;0.97;;;15.30;76.80;;;;;;4949899;28;20198;-70
2023/05/27 09:13:28;;;;;;;5.87;2.80;;;15.20;75.70;;;;;;4953124;28;20241;-70
2023/05/27 09:16:02;;;;;;;2.30;1.50;;;15.30;76.90;;;;;;4960576;28;20213;-73
2023/05/27 09:18:29;;;;;;;4.47;1.27;;;15.60;71.10;;;;;;4960703;28;20209;-73
2023/05/27 09:20:55;;;;;;;2.50;1.50;;;16.10;75.40;;;;;;4959907;28;20209;-73
2023/05/27 09:23:21;;;;;;;1.80;0.97;;;16.30;67.70;;;;;;4960355;28;20229;-71
2023/05/27 09:25:47;;;;;;;4.10;1.33;;;16.30;75.10;;;;;;4960945;28;20566;-75
2023/05/27 09:28:23;;;;;;;2.60;1.50;;;16.10;76.00;;;;;;4958178;28;20739;-74
2023/05/27 09:31:08;;;;;;;2.60;1.37;;;16.20;68.20;;;;;;4960611;28;20205;-75
2023/05/27 09:33:37;;;;;;;2.60;0.90;;;16.40;69.90;;;;;;4958233;28;20201;-72
2023/05/27 09:36:04;;;;;;;1.70;1.00;;;16.50;71.50;;;;;;4959974;28;20202;-70
2023/05/27 09:38:34;;;;;;;1.97;1.00;;;16.40;68.10;;;;;;4959542;28;20292;-70
2023/05/27 09:41:00;;;;;;;1.00;1.00;;;16.60;66.80;;;;;;4958000;28;20202;-70
2023/05/27 09:43:27;;;;;;;1.00;0.90;;;16.80;67.00;;;;;;4960291;28;20271;-71
2023/05/27 09:46:02;;;;;;;2.50;1.13;;;16.90;69.10;;;;;;4959260;28;20201;-70
2023/05/27 09:48:33;;;;;;;4.17;1.20;;;17.20;76.00;;;;;;4959238;28;20396;-70
2023/05/27 09:51:03;;;;;;;1.73;1.03;;;17.40;71.00;;;;;;4947866;28;20205;-70
2023/05/27 09:53:30;;;;;;;1.40;0.90;;;17.40;67.70;;;;;;4960445;28;20574;-70
2023/05/27 09:55:57;;;;;;;4.60;1.73;;;17.40;65.10;;;;;;4960621;28;20253;-71
2023/05/27 09:58:24;;;;;;;1.70;1.07;;;17.30;64.60;;;;;;4958391;28;20252;-74
2023/05/27 10:00:50;;;;;;;2.40;0.97;;;17.10;64.40;;;;;;4959928;28;20202;-72
2023/05/27 10:03:21;;;;;;;1.77;1.27;;;16.80;85.50;;;;;;4954524;28;20566;-81
2023/05/27 10:05:49;;;;;;;3.30;1.67;;;16.80;74.80;;;;;;4943997;28;20335;-76
2023/05/27 10:08:15;;;;;;;2.70;1.40;;;16.90;81.30;;;;;;4947585;28;20265;-76
2023/05/27 10:10:41;;;;;;;2.37;1.00;;;16.50;72.20;;;;;;4944503;28;20206;-75
2023/05/27 10:13:07;;;;;;;2.47;1.50;;;16.70;64.10;;;;;;4944239;28;20207;-78
2023/05/27 10:15:33;;;;;;;2.83;1.80;;;16.90;83.60;;;;;;4950543;28;20205;-79
2023/05/27 10:18:02;;;;;;;2.47;1.30;;;17.10;71.50;;;;;;4950351;28;20656;-78
2023/05/27 10:20:38;;;;;;;1.97;1.30;;;16.90;78.80;;;;;;4949381;28;20244;-78
2023/05/27 10:23:21;;;;;;;1.50;1.40;;;16.90;62.70;;;;;;4952392;28;20797;-76
2023/05/27 10:25:53;;;;;;;1.50;1.20;;;17.20;63.70;;;;;;4942184;28;20220;-75
2023/05/27 10:28:31;;;;;;;3.27;1.50;;;17.70;67.60;;;;;;4954869;28;20206;-74
2023/05/27 10:31:07;;;;;;;2.10;1.60;;;17.60;67.80;;;;;;4949307;28;20194;-84
2023/05/27 10:33:37;;;;;;;0.93;0.70;;;17.50;70.80;;;;;;4946471;28;20235;-77
2023/05/27 10:36:23;;;;;;;1.80;1.13;;;17.30;70.90;;;;;;4956757;28;20284;-77
2023/05/27 10:38:56;;;;;;;1.20;1.10;;;17.00;70.70;;;;;;4949662;28;20221;-73
2023/05/27 10:41:22;;;;;;;2.53;1.30;;;16.90;75.40;;;;;;4945133;28;20217;-74
2023/05/27 10:43:58;;;;;;;1.63;1.53;;;17.40;65.90;;;;;;4950859;28;20213;-76
2023/05/27 10:46:24;;;;;;;1.30;1.20;;;17.60;68.90;;;;;;4950436;28;20197;-75
2023/05/27 10:48:50;;;;;;;1.60;1.27;;;17.60;66.20;;;;;;4944155;28;20206;-75
2023/05/27 10:51:15;;;;;;;1.30;1.20;;;17.50;68.40;;;;;;4931366;28;20206;-75
2023/05/27 10:53:41;;;;;;;2.70;1.20;;;17.60;68.90;;;;;;4950508;28;20198;-75
2023/05/27 10:56:08;;;;;;;2.30;1.63;;;18.20;64.60;;;;;;4950029;28;20218;-75
2023/05/27 10:58:35;;;;;;;2.80;1.87;;;18.40;69.20;;;;;;4946578;28;20420;-76
2023/05/27 11:01:08;;;;;;;2.03;1.40;;;18.60;58.00;;;;;;4944343;28;20201;-75
2023/05/27 11:03:34;;;;;;;2.17;1.93;;;18.90;57.00;;;;;;4949138;28;20201;-76
2023/05/27 11:06:04;;;;;;;2.83;1.60;;;19.20;59.10;;;;;;4952970;28;20301;-76
2023/05/27 11:08:34;;;;;;;1.97;1.70;;;19.50;59.90;;;;;;4947852;28;20194;-76
2023/05/27 11:11:02;;;;;;;2.50;2.10;;;19.60;53.50;;;;;;4949811;28;20686;-75
2023/05/27 11:13:35;;;;;;;2.33;1.83;;;19.90;57.10;;;;;;4950169;28;20293;-77
2023/05/27 11:16:06;;;;;;;2.07;1.60;;;20.00;56.70;;;;;;4948065;28;20202;-76
2023/05/27 11:18:46;;;;;;;2.03;1.83;;;20.20;53.30;;;;;;4949585;28;20203;-76
2023/05/27 11:21:15;;;;;;;1.87;1.40;;;20.30;52.70;;;;;;4943805;28;20565;-76
2023/05/27 11:23:44;;;;;;;2.27;1.60;;;20.20;53.40;;;;;;4952127;28;20231;-76
2023/05/27 11:26:27;;;;;;;3.53;1.67;;;20.30;56.00;;;;;;4949409;28;20231;-76
2023/05/27 11:28:57;;;;;;;1.20;1.10;;;20.40;54.70;;;;;;4945993;28;20195;-76
2023/05/27 11:31:28;;;;;;;1.53;1.40;;;20.50;53.20;;;;;;4946901;28;20246;-76
2023/05/27 11:33:54;;;;;;;2.30;1.77;;;20.80;54.90;;;;;;4948649;28;20227;-76
2023/05/27 11:36:21;;;;;;;2.40;1.80;;;21.00;54.00;;;;;;4947286;28;20213;-76
2023/05/27 11:38:51;;;;;;;2.30;1.73;;;21.00;52.30;;;;;;4949617;28;20291;-77
2023/05/27 11:41:17;;;;;;;1.70;1.60;;;21.10;50.00;;;;;;4949415;28;20202;-76
2023/05/27 11:43:57;;;;;;;1.63;1.47;;;21.10;51.00;;;;;;4947761;28;20211;-77
2023/05/27 11:46:24;;;;;;;1.73;1.63;;;21.40;49.60;;;;;;4948565;28;20220;-76
2023/05/27 11:48:49;;;;;;;1.37;1.27;;;22.00;49.10;;;;;;4952119;28;20293;-75
2023/05/27 11:51:15;;;;;;;1.93;1.47;;;21.60;49.10;;;;;;4949585;28;20293;-76
2023/05/27 11:53:44;;;;;;;2.00;1.80;;;21.50;49.00;;;;;;4947260;28;20244;-76
2023/05/27 11:56:10;;;;;;;3.35;2.53;;;22.20;47.60;;;;;;4951806;28;20215;-76
2023/05/27 11:58:36;;;;;;;4.13;3.73;;;22.20;49.10;;;;;;4949639;28;20205;-77
2023/05/27 12:01:03;;;;;;;3.60;3.08;;;22.10;47.80;;;;;;4948888;28;20211;-76
2023/05/27 12:03:28;;;;;;;1.60;1.50;;;22.20;47.30;;;;;;4946659;28;20210;-78
2023/05/27 12:05:54;;;;;;;1.63;1.33;;;22.00;45.60;;;;;;4948445;28;20211;-77
2023/05/27 12:08:19;;;;;;;1.60;1.50;;;22.10;46.60;;;;;;4950288;28;20197;-75
2023/05/27 12:10:50;;;;;;;1.63;1.52;;;22.30;48.20;;;;;;4957805;28;20204;-76
2023/05/27 12:13:15;;;;;;;2.60;2.10;;;22.50;45.10;;;;;;4951488;28;20225;-75
2023/05/27 12:15:41;;;;;;;3.85;1.80;;;23.20;46.00;;;;;;4950711;28;20205;-75
2023/05/27 12:18:06;;;;;;;1.83;1.73;;;23.20;45.80;;;;;;4953918;28;20214;-75
2023/05/27 12:20:31;;;;;;;3.10;1.77;;;22.90;46.70;;;;;;4942702;28;20254;-76
2023/05/27 12:22:58;;;;;;;2.80;1.60;;;22.80;47.00;;;;;;4922237;28;20321;-77
2023/05/27 12:25:23;;;;;;;3.17;2.03;;;22.80;47.20;;;;;;4941203;28;20522;-76
2023/05/27 12:27:49;;;;;;;2.08;1.50;;;23.10;48.50;;;;;;4941422;28;20196;-76
2023/05/27 12:30:15;;;;;;;2.20;1.70;;;23.20;46.60;;;;;;4946714;28;20674;-77
2023/05/27 12:32:41;;;;;;;2.55;1.92;;;23.20;46.10;;;;;;4946558;28;20251;-77
2023/05/27 12:35:07;;;;;;;1.77;1.60;;;23.70;44.80;;;;;;4946200;28;20211;-77
2023/05/27 12:37:33;;;;;;;3.00;1.85;;;23.40;43.90;;;;;;4947216;28;20202;-76
2023/05/27 12:40:05;;;;;;;2.42;1.60;;;22.60;43.90;;;;;;4947136;28;20198;-76
2023/05/27 12:42:32;;;;;;;3.70;1.38;;;22.70;47.60;;;;;;4944122;28;20213;-76